Time;durP1;ratioP1;P1;durP2;ratioP2;P2;SDS_P1;SDS_P2;PMS_P1;PMS_P2;Temp;Humidity;BMP_temperature;BMP_pressure;BME280_temperature;BME280_humidity;BME280_pressure;Samples;Min_cycle;Max_cycle;Signal;HPM_P1;HPM_P2
2024/03/15 00:00:12;;;;;;;15.17;12.90;;;;;;;7.47;80.58;93429.84;523276;28;768;-70
2024/03/15 00:00:27;;;;;;;14.57;12.70;;;;;;;7.49;80.28;93425.28;523250;28;831;-70
2024/03/15 00:00:43;;;;;;;13.70;12.07;;;;;;;7.49;80.34;93422.53;523300;28;863;-69
2024/03/15 00:00:58;;;;;;;13.82;12.32;;;;;;;7.50;80.17;93421.28;523262;28;760;-69
2024/03/15 00:01:14;;;;;;;13.63;12.17;;;;;;;7.50;80.29;93424.03;523203;28;871;-70
2024/03/15 00:01:31;;;;;;;13.52;11.98;;;;;;;7.50;80.21;93423.28;523259;28;768;-69
2024/03/15 00:01:46;;;;;;;14.63;12.93;;;;;;;7.50;80.30;93423.28;523305;28;811;-69
2024/03/15 00:02:02;;;;;;;13.88;12.38;;;;;;;7.50;80.33;93424.03;523320;28;760;-70
2024/03/15 00:02:18;;;;;;;13.18;11.82;;;;;;;7.51;80.29;93422.75;523124;28;811;-70
2024/03/15 00:02:34;;;;;;;13.53;12.13;;;;;;;7.51;80.27;93425.47;523042;28;855;-70
2024/03/15 00:02:49;;;;;;;14.00;12.23;;;;;;;7.51;80.50;93424.78;523149;28;840;-69
2024/03/15 00:03:05;;;;;;;13.80;11.83;;;;;;;7.51;80.46;93428.22;523190;28;809;-70
2024/03/15 00:03:21;;;;;;;13.23;11.82;;;;;;;7.51;80.46;93428.22;523108;28;890;-69
2024/03/15 00:03:36;;;;;;;13.75;12.35;;;;;;;7.52;80.37;93426.22;523108;28;839;-70
2024/03/15 00:03:51;;;;;;;14.13;12.63;;;;;;;7.51;80.48;93428.22;523155;28;803;-70
2024/03/15 00:04:07;;;;;;;13.93;12.25;;;;;;;7.48;80.25;93421.06;523180;28;839;-70
2024/03/15 00:04:22;;;;;;;13.40;11.57;;;;;;;7.47;80.26;93427.09;523238;28;839;-70
2024/03/15 00:04:38;;;;;;;13.67;11.63;;;;;;;7.47;80.35;93427.09;523352;28;828;-71
2024/03/15 00:04:54;;;;;;;14.07;12.25;;;;;;;7.44;80.63;93423.41;523370;28;828;-70
2024/03/15 00:05:09;;;;;;;13.48;12.00;;;;;;;7.40;80.36;93419.50;523164;28;795;-70
2024/03/15 00:05:26;;;;;;;12.47;11.17;;;;;;;7.39;80.48;93426.22;523306;28;903;-70
2024/03/15 00:05:42;;;;;;;12.25;10.57;;;;;;;7.37;80.63;93424.03;523307;28;824;-70
2024/03/15 00:05:58;;;;;;;12.13;10.75;;;;;;;7.37;80.86;93429.53;523294;28;862;-70
2024/03/15 00:06:13;;;;;;;12.52;11.23;;;;;;;7.36;80.92;93424.56;523275;28;772;-70
2024/03/15 00:06:29;;;;;;;12.97;11.37;;;;;;;7.37;80.89;93428.78;523248;28;769;-69
2024/03/15 00:06:44;;;;;;;13.52;11.43;;;;;;;7.35;81.03;93432.06;523251;28;785;-69
2024/03/15 00:07:01;;;;;;;13.57;11.33;;;;;;;7.34;80.82;93421.59;523312;28;808;-70
2024/03/15 00:07:16;;;;;;;13.27;11.35;;;;;;;7.33;80.69;93426.34;523341;28;807;-70
2024/03/15 00:07:32;;;;;;;14.87;11.77;;;;;;;7.31;81.03;93426.16;523176;28;828;-70
2024/03/15 00:07:47;;;;;;;16.88;11.75;;;;;;;7.29;81.19;93422.44;523205;28;835;-70
2024/03/15 00:08:03;;;;;;;29.03;12.63;;;;;;;7.30;81.28;93419.16;523305;28;788;-70
2024/03/15 00:08:19;;;;;;;34.65;13.68;;;;;;;7.30;81.37;93421.91;523239;28;773;-70
2024/03/15 00:08:34;;;;;;;20.23;12.93;;;;;;;7.29;81.22;93422.44;523235;28;898;-70
2024/03/15 00:08:51;;;;;;;15.13;12.00;;;;;;;7.28;80.82;93423.69;523258;28;832;-70
2024/03/15 00:09:09;;;;;;;14.40;11.40;;;;;;;7.31;81.40;93419.91;523281;28;812;-70
2024/03/15 00:09:24;;;;;;;14.73;11.77;;;;;;;7.33;81.47;93425.59;523228;28;820;-70
2024/03/15 00:09:40;;;;;;;16.73;12.20;;;;;;;7.33;81.44;93420.13;523260;28;819;-70
2024/03/15 00:09:56;;;;;;;15.45;12.15;;;;;;;7.34;81.41;93425.06;523306;28;776;-70
2024/03/15 00:10:11;;;;;;;13.23;11.70;;;;;;;7.34;81.62;93427.09;523259;28;843;-70
2024/03/15 00:10:27;;;;;;;13.20;11.80;;;;;;;7.36;81.42;93422.53;523339;28;859;-70
2024/03/15 00:10:43;;;;;;;16.13;11.90;;;;;;;7.37;81.51;93420.53;523205;28;836;-70
2024/03/15 00:10:59;;;;;;;16.30;11.27;;;;;;;7.38;81.40;93422.78;523296;28;913;-70
2024/03/15 00:11:14;;;;;;;14.77;11.52;;;;;;;7.39;81.11;93423.50;523329;28;902;-70
2024/03/15 00:11:30;;;;;;;15.00;11.90;;;;;;;7.40;81.53;93414.75;523272;28;819;-70
2024/03/15 00:11:46;;;;;;;13.73;12.18;;;;;;;7.41;81.39;93416.19;523295;28;843;-70
2024/03/15 00:12:01;;;;;;;13.77;12.27;;;;;;;7.42;81.26;93417.69;523282;28;844;-70
2024/03/15 00:12:17;;;;;;;14.27;12.50;;;;;;;7.44;81.35;93414.41;523233;28;1973;-70
2024/03/15 00:12:35;;;;;;;15.13;13.02;;;;;;;7.45;81.36;93424.84;523178;28;831;-70
2024/03/15 00:12:51;;;;;;;13.45;11.60;;;;;;;7.46;81.34;93418.13;523302;28;840;-70
2024/03/15 00:13:06;;;;;;;12.45;11.15;;;;;;;7.47;81.22;93416.13;523292;28;788;-70
2024/03/15 00:13:22;;;;;;;13.17;11.80;;;;;;;7.46;81.07;93412.63;523181;28;844;-70
2024/03/15 00:13:37;;;;;;;13.80;12.40;;;;;;;7.48;81.17;93414.81;523174;28;784;-70
2024/03/15 00:13:53;;;;;;;13.60;12.20;;;;;;;7.49;81.15;93419.06;523234;28;815;-70
2024/03/15 00:14:08;;;;;;;13.60;12.13;;;;;;;7.50;81.02;93423.28;523278;28;804;-70
2024/03/15 00:14:24;;;;;;;13.10;11.60;;;;;;;7.49;80.95;93427.31;523318;28;831;-70
2024/03/15 00:14:42;;;;;;;12.40;10.88;;;;;;;7.48;80.96;93421.06;523142;28;848;-70
2024/03/15 00:14:57;;;;;;;14.05;12.55;;;;;;;7.48;80.93;93423.06;523181;28;940;-69
2024/03/15 00:15:13;;;;;;;16.03;14.33;;;;;;;7.44;80.96;93420.66;523223;28;999;-70
2024/03/15 00:15:29;;;;;;;17.75;15.82;;;;;;;7.43;81.13;93418.41;523286;28;855;-70
2024/03/15 00:15:45;;;;;;;21.23;18.98;;;;;;;7.43;81.22;93419.16;523284;28;950;-70
2024/03/15 00:16:03;;;;;;;24.95;22.38;;;;;;;7.43;80.96;93421.91;523270;28;792;-70
2024/03/15 00:16:19;;;;;;;26.13;23.50;;;;;;;7.42;81.39;93412.19;523194;28;840;-70
2024/03/15 00:16:34;;;;;;;24.52;22.00;;;;;;;7.43;81.28;93415.66;523258;28;922;-70
2024/03/15 00:16:50;;;;;;;22.43;20.03;;;;;;;7.44;81.17;93420.66;523222;28;756;-70
2024/03/15 00:17:07;;;;;;;22.17;19.83;;;;;;;7.43;81.24;93418.41;523190;28;820;-70
2024/03/15 00:17:23;;;;;;;20.67;18.45;;;;;;;7.43;81.26;93424.66;523248;28;1084;-70
2024/03/15 00:17:38;;;;;;;19.42;16.30;;;;;;;7.43;81.35;93416.41;523103;28;914;-70
2024/03/15 00:17:54;;;;;;;18.13;15.60;;;;;;;7.44;81.15;93415.16;523280;28;890;-70
2024/03/15 00:18:09;;;;;;;16.33;14.60;;;;;;;7.45;81.31;93416.63;523238;28;807;-70
2024/03/15 00:18:25;;;;;;;15.47;13.60;;;;;;;7.46;81.26;93418.13;523366;28;776;-70
2024/03/15 00:18:40;;;;;;;14.70;12.82;;;;;;;7.46;81.10;93411.88;523238;28;757;-70
2024/03/15 00:18:57;;;;;;;13.80;11.87;;;;;;;7.33;81.13;93398.16;523220;28;832;-70
2024/03/15 00:19:13;;;;;;;14.70;11.82;;;;;;;7.48;81.03;93415.56;523311;28;922;-70
2024/03/15 00:19:29;;;;;;;15.23;11.20;;;;;;;7.48;81.07;93415.56;523260;28;1083;-70
2024/03/15 00:19:44;;;;;;;12.93;10.57;;;;;;;7.50;81.13;93415.03;523296;28;808;-70
2024/03/15 00:20:00;;;;;;;13.50;10.60;;;;;;;7.50;81.04;93413.03;523300;28;824;-70
2024/03/15 00:20:15;;;;;;;13.00;10.52;;;;;;;7.51;81.07;93411.75;523363;28;741;-70
2024/03/15 00:20:31;;;;;;;12.37;10.87;;;;;;;7.52;80.50;93418.00;523227;28;844;-70
2024/03/15 00:20:46;;;;;;;12.15;10.77;;;;;;;7.52;80.86;93413.25;523257;28;748;-70
2024/03/15 00:21:02;;;;;;;12.97;11.37;;;;;;;7.53;80.88;93411.25;523263;28;804;-70
2024/03/15 00:21:17;;;;;;;15.02;11.30;;;;;;;7.53;80.85;93417.47;523287;28;748;-70
2024/03/15 00:21:33;;;;;;;14.27;11.00;;;;;;;7.53;81.07;93412.00;523232;28;1075;-70
2024/03/15 00:21:49;;;;;;;13.23;11.03;;;;;;;7.54;80.96;93410.69;523260;28;757;-70
2024/03/15 00:22:06;;;;;;;13.60;11.20;;;;;;;7.54;80.73;93418.19;523330;28;826;-70
2024/03/15 00:22:23;;;;;;;13.25;11.50;;;;;;;7.54;81.06;93407.97;523261;28;815;-70
2024/03/15 00:22:38;;;;;;;12.43;11.07;;;;;;;7.55;80.83;93412.19;523209;28;827;-70
2024/03/15 00:22:54;;;;;;;13.10;11.07;;;;;;;7.55;80.95;93412.19;523343;28;800;-70
2024/03/15 00:23:09;;;;;;;14.63;11.38;;;;;;;7.54;80.85;93416.19;523202;28;800;-70
2024/03/15 00:23:25;;;;;;;14.47;10.63;;;;;;;7.54;80.95;93407.97;523303;28;851;-70
2024/03/15 00:23:42;;;;;;;13.90;10.40;;;;;;;7.54;80.89;93407.22;523175;28;847;-70
2024/03/15 00:23:57;;;;;;;12.77;10.35;;;;;;;7.55;80.73;93414.94;523280;28;852;-70
2024/03/15 00:24:16;;;;;;;11.90;10.48;;;;;;;7.53;80.73;93403.75;523249;28;839;-70
2024/03/15 00:24:31;;;;;;;12.20;10.60;;;;;;;7.56;80.79;93410.91;523208;28;824;-70
2024/03/15 00:24:48;;;;;;;12.82;10.65;;;;;;;7.56;80.69;93410.91;523283;28;815;-70
2024/03/15 00:25:04;;;;;;;12.35;10.43;;;;;;;7.56;80.75;93410.91;523353;28;828;-69
2024/03/15 00:25:20;;;;;;;12.00;10.07;;;;;;;7.58;80.63;93415.88;523199;28;828;-70
2024/03/15 00:25:36;;;;;;;12.70;10.40;;;;;;;7.57;81.09;93415.16;523232;28;863;-70
2024/03/15 00:25:51;;;;;;;13.03;10.67;;;;;;;7.57;80.70;93406.91;523257;28;788;-70
2024/03/15 00:26:08;;;;;;;12.45;10.32;;;;;;;7.59;80.90;93409.13;523236;28;784;-70
2024/03/15 00:26:24;;;;;;;11.20;9.77;;;;;;;7.59;80.80;93415.34;523281;28;844;-70
2024/03/15 00:26:41;;;;;;;11.85;10.05;;;;;;;7.59;80.98;93415.34;523260;28;859;-70
2024/03/15 00:26:56;;;;;;;12.20;9.98;;;;;;;7.60;80.82;93410.59;523314;28;827;-70
2024/03/15 00:27:12;;;;;;;11.35;9.85;;;;;;;7.59;80.92;93409.84;523288;28;875;-70
2024/03/15 00:27:27;;;;;;;11.10;9.93;;;;;;;7.59;80.76;93409.13;523215;28;760;-70
2024/03/15 00:27:43;;;;;;;12.18;10.45;;;;;;;7.58;80.50;93410.38;523158;28;965;-70
2024/03/15 00:27:58;;;;;;;14.13;10.80;;;;;;;7.57;80.57;93409.66;523297;28;811;-70
2024/03/15 00:28:14;;;;;;;14.00;10.65;;;;;;;7.55;80.72;93406.69;523261;28;784;-70
2024/03/15 00:28:29;;;;;;;13.87;11.20;;;;;;;7.55;80.78;93409.44;523215;28;847;-70
2024/03/15 00:28:45;;;;;;;15.27;12.07;;;;;;;7.53;80.68;93403.75;523266;28;761;-70
2024/03/15 00:29:02;;;;;;;16.60;12.47;;;;;;;7.54;80.66;93407.22;523232;28;768;-70
2024/03/15 00:29:18;;;;;;;18.38;13.40;;;;;;;7.48;80.75;93396.34;523286;28;816;-70
2024/03/15 00:29:33;;;;;;;19.85;14.13;;;;;;;7.55;80.67;93403.22;523221;28;796;-70
2024/03/15 00:29:49;;;;;;;18.85;13.98;;;;;;;7.55;80.75;93405.94;523299;28;765;-70
2024/03/15 00:30:07;;;;;;;18.13;13.77;;;;;;;7.55;80.88;93406.69;523138;28;907;-70
2024/03/15 00:30:23;;;;;;;19.60;14.55;;;;;;;7.56;80.74;93405.41;523274;28;839;-70
2024/03/15 00:30:41;;;;;;;20.15;14.73;;;;;;;7.56;80.73;93408.16;523172;28;867;-70
2024/03/15 00:30:56;;;;;;;19.38;14.38;;;;;;;7.58;80.78;93402.88;523279;28;828;-70
2024/03/15 00:31:12;;;;;;;18.70;14.03;;;;;;;7.58;80.88;93407.63;523274;28;741;-70
2024/03/15 00:31:28;;;;;;;19.38;14.48;;;;;;;7.59;80.64;93400.88;523210;28;807;-70
2024/03/15 00:31:44;;;;;;;22.50;15.18;;;;;;;7.59;80.55;93401.63;523251;28;847;-70
2024/03/15 00:32:00;;;;;;;22.27;14.68;;;;;;;7.59;80.69;93404.38;523296;28;879;-70
2024/03/15 00:32:15;;;;;;;17.40;14.03;;;;;;;7.60;80.58;93403.09;523156;28;2004;-70
2024/03/15 00:32:31;;;;;;;16.23;13.65;;;;;;;7.60;80.38;93405.81;523278;28;839;-70
2024/03/15 00:32:47;;;;;;;15.60;12.70;;;;;;;7.61;80.60;93401.06;523173;28;858;-70
2024/03/15 00:33:02;;;;;;;14.95;12.15;;;;;;;7.62;80.23;93403.28;523191;28;868;-70
2024/03/15 00:33:18;;;;;;;15.63;12.43;;;;;;;7.63;80.42;93404.78;523232;28;789;-70
2024/03/15 00:33:35;;;;;;;16.33;12.53;;;;;;;7.63;80.38;93402.03;523267;28;857;-70
2024/03/15 00:33:50;;;;;;;16.63;12.75;;;;;;;7.62;80.44;93400.53;523262;28;792;-70
2024/03/15 00:34:06;;;;;;;15.02;12.15;;;;;;;7.64;80.25;93411.03;523249;28;812;-70
2024/03/15 00:34:24;;;;;;;16.35;12.50;;;;;;;7.64;80.13;93409.00;523180;28;903;-70
2024/03/15 00:34:39;;;;;;;18.35;13.10;;;;;;;7.65;80.30;93407.72;523194;28;793;-70
2024/03/15 00:34:55;;;;;;;17.07;13.07;;;;;;;7.65;80.24;93404.97;523314;28;776;-70
2024/03/15 00:35:10;;;;;;;15.50;12.13;;;;;;;7.65;80.22;93404.97;523215;28;776;-70
2024/03/15 00:35:26;;;;;;;13.77;10.97;;;;;;;7.67;80.14;93406.47;523280;28;776;-70
2024/03/15 00:35:45;;;;;;;12.73;10.70;;;;;;;7.67;80.00;93406.47;523206;28;816;-70
2024/03/15 00:36:00;;;;;;;13.25;10.57;;;;;;;7.67;79.94;93406.47;523068;28;891;-70
2024/03/15 00:36:18;;;;;;;13.43;10.57;;;;;;;7.67;80.19;93409.94;523065;28;804;-70
2024/03/15 00:36:35;;;;;;;13.35;10.63;;;;;;;7.52;80.15;93385.78;523100;28;800;-70
2024/03/15 00:36:52;;;;;;;12.13;10.00;;;;;;;7.68;80.09;93410.69;523061;28;816;-70
2024/03/15 00:37:08;;;;;;;11.70;10.10;;;;;;;7.67;79.75;93412.69;523011;28;844;-70
2024/03/15 00:37:24;;;;;;;11.88;10.43;;;;;;;7.68;79.92;93399.69;523062;28;863;-69
2024/03/15 00:37:39;;;;;;;12.40;10.27;;;;;;;7.68;79.92;93405.19;523034;28;757;-70
2024/03/15 00:37:54;;;;;;;14.10;10.77;;;;;;;7.68;79.81;93399.69;523156;28;789;-70
2024/03/15 00:38:10;;;;;;;12.45;10.27;;;;;;;7.68;79.92;93399.69;523163;28;821;-70
2024/03/15 00:38:28;;;;;;;11.23;9.90;;;;;;;7.68;79.73;93396.94;523194;28;811;-70
2024/03/15 00:38:43;;;;;;;12.25;10.52;;;;;;;7.68;79.68;93408.69;523176;28;1059;-70
2024/03/15 00:38:59;;;;;;;12.63;10.43;;;;;;;7.68;79.76;93408.69;523181;28;809;-70
2024/03/15 00:39:15;;;;;;;12.43;10.20;;;;;;;7.67;79.67;93396.19;523168;28;996;-70
2024/03/15 00:39:31;;;;;;;12.63;10.47;;;;;;;7.67;79.74;93409.22;523235;28;824;-70
2024/03/15 00:39:46;;;;;;;14.98;11.10;;;;;;;7.65;79.60;93398.75;523175;28;819;-70
2024/03/15 00:40:02;;;;;;;15.10;10.77;;;;;;;7.65;79.79;93404.97;523183;28;967;-70
2024/03/15 00:40:18;;;;;;;13.00;10.07;;;;;;;7.65;79.77;93407.72;523201;28;773;-70
2024/03/15 00:40:33;;;;;;;13.90;10.93;;;;;;;7.64;79.77;93403.50;523200;28;831;-70
2024/03/15 00:40:49;;;;;;;14.43;11.07;;;;;;;7.46;79.90;93371.41;523293;28;832;-70
2024/03/15 00:41:04;;;;;;;13.80;10.55;;;;;;;7.65;80.08;93402.25;523244;28;784;-70
2024/03/15 00:41:20;;;;;;;11.97;10.37;;;;;;;7.64;79.93;93398.00;523188;28;802;-70
2024/03/15 00:41:36;;;;;;;11.45;10.23;;;;;;;7.64;80.10;93400.03;523176;28;903;-70
2024/03/15 00:41:51;;;;;;;12.65;10.27;;;;;;;7.65;79.93;93401.50;523272;28;792;-70
2024/03/15 00:42:07;;;;;;;14.20;10.33;;;;;;;7.65;79.90;93396.00;523258;28;756;-70
2024/03/15 00:42:23;;;;;;;14.45;10.77;;;;;;;7.65;80.06;93396.00;523285;28;844;-70
2024/03/15 00:42:38;;;;;;;13.60;10.65;;;;;;;7.65;79.93;93396.75;523191;28;879;-70
2024/03/15 00:42:54;;;;;;;12.97;10.37;;;;;;;7.65;79.81;93393.25;523208;28;836;-70
2024/03/15 00:43:15;;;;;;;12.85;10.35;;;;;;;7.65;80.00;93396.75;523268;28;730;-70
2024/03/15 00:43:31;;;;;;;12.35;9.73;;;;;;;7.65;79.90;93396.75;523191;28;829;-70
2024/03/15 00:43:46;;;;;;;13.43;10.32;;;;;;;7.65;79.89;93407.00;523222;28;773;-70
2024/03/15 00:44:01;;;;;;;13.67;10.77;;;;;;;7.62;80.14;93397.06;523139;28;777;-70
2024/03/15 00:44:17;;;;;;;12.68;11.02;;;;;;;7.62;80.06;93388.84;523209;28;832;-70
2024/03/15 00:44:33;;;;;;;14.30;11.87;;;;;;;7.60;79.96;93392.09;523101;28;1093;-70
2024/03/15 00:44:49;;;;;;;15.35;12.35;;;;;;;7.60;80.02;93396.88;523173;28;875;-70
2024/03/15 00:45:05;;;;;;;15.43;12.43;;;;;;;7.59;80.01;93387.88;523298;28;844;-70
2024/03/15 00:45:21;;;;;;;15.02;12.23;;;;;;;7.58;80.12;93391.88;523112;28;781;-70
2024/03/15 00:45:37;;;;;;;14.57;12.05;;;;;;;7.58;80.10;93397.38;523196;28;780;-70
2024/03/15 00:45:52;;;;;;;15.10;12.00;;;;;;;7.59;80.08;93396.13;523245;28;749;-70
2024/03/15 00:46:08;;;;;;;15.67;12.23;;;;;;;7.58;80.13;93397.38;523133;28;829;-70
2024/03/15 00:46:24;;;;;;;16.55;12.43;;;;;;;7.58;80.23;93394.63;523165;28;828;-70
2024/03/15 00:46:40;;;;;;;17.42;12.65;;;;;;;7.47;80.25;93383.16;523098;28;827;-70
2024/03/15 00:46:56;;;;;;;16.90;12.82;;;;;;;7.58;80.21;93394.63;523187;28;918;-70
2024/03/15 00:47:12;;;;;;;15.70;12.88;;;;;;;7.59;80.48;93396.13;523189;28;741;-70
2024/03/15 00:47:28;;;;;;;16.23;13.07;;;;;;;7.45;80.51;93377.44;523149;28;1024;-70
2024/03/15 00:47:46;;;;;;;16.52;12.95;;;;;;;7.60;80.11;93394.84;522817;28;1210;-69
2024/03/15 00:48:03;;;;;;;15.85;13.25;;;;;;;7.59;80.53;93404.38;523133;28;922;-70
2024/03/15 00:48:18;;;;;;;16.52;13.63;;;;;;;7.59;80.50;93396.13;523231;28;792;-70
2024/03/15 00:48:35;;;;;;;15.93;13.30;;;;;;;7.61;80.33;93398.34;523161;28;847;-70
2024/03/15 00:48:53;;;;;;;16.45;13.82;;;;;;;7.61;80.70;93396.31;523179;28;848;-70
2024/03/15 00:49:10;;;;;;;16.02;13.57;;;;;;;7.46;80.68;93371.41;523202;28;899;-70
2024/03/15 00:49:26;;;;;;;14.88;13.05;;;;;;;7.61;80.56;93390.84;523173;28;1201;-70
2024/03/15 00:49:41;;;;;;;16.38;13.52;;;;;;;7.61;80.42;93395.59;523225;28;780;-70
2024/03/15 00:49:57;;;;;;;16.63;13.43;;;;;;;7.59;80.66;93396.13;523214;28;789;-70
2024/03/15 00:50:12;;;;;;;15.03;12.90;;;;;;;7.59;80.83;93398.88;523248;28;816;-70
2024/03/15 00:50:29;;;;;;;15.45;12.77;;;;;;;7.60;80.69;93396.88;523232;28;898;-70
2024/03/15 00:50:45;;;;;;;16.00;12.60;;;;;;;7.60;80.62;93396.88;523166;28;847;-70
2024/03/15 00:51:00;;;;;;;15.13;12.60;;;;;;;7.58;80.60;93391.88;523120;28;772;-70
2024/03/15 00:51:15;;;;;;;16.52;13.50;;;;;;;7.56;80.89;93393.69;523259;28;808;-70
2024/03/15 00:51:31;;;;;;;15.87;13.27;;;;;;;7.58;80.82;93397.38;523179;28;1066;-70
2024/03/15 00:51:47;;;;;;;14.02;12.52;;;;;;;7.58;80.58;93391.13;523158;28;764;-70
2024/03/15 00:52:03;;;;;;;14.10;12.55;;;;;;;7.59;80.85;93398.13;523240;28;946;-70
2024/03/15 00:52:19;;;;;;;14.70;12.57;;;;;;;7.60;80.88;93394.13;523755;28;1918;-70
2024/03/15 00:52:34;;;;;;;15.80;13.10;;;;;;;7.58;80.66;93396.63;523182;28;836;-70
2024/03/15 00:52:49;;;;;;;15.10;12.52;;;;;;;7.60;80.64;93389.34;523227;28;761;-70
2024/03/15 00:53:05;;;;;;;14.00;11.97;;;;;;;7.60;80.52;93389.34;523134;28;851;-70
2024/03/15 00:53:20;;;;;;;13.75;11.93;;;;;;;7.60;80.62;93389.34;523134;28;868;-70
2024/03/15 00:53:36;;;;;;;14.57;12.07;;;;;;;7.61;80.66;93393.59;523085;28;752;-70
2024/03/15 00:53:52;;;;;;;14.35;12.25;;;;;;;7.60;80.58;93383.84;523246;28;789;-70
2024/03/15 00:54:09;;;;;;;15.13;12.20;;;;;;;7.61;80.57;93395.59;523233;28;764;-70
2024/03/15 00:54:27;;;;;;;15.15;11.95;;;;;;;7.60;80.64;93392.09;523257;28;903;-70
2024/03/15 00:54:42;;;;;;;15.55;12.43;;;;;;;7.59;80.61;93385.13;523138;28;899;-70
2024/03/15 00:54:58;;;;;;;17.80;13.93;;;;;;;7.61;80.57;93390.09;523181;28;788;-70
2024/03/15 00:55:13;;;;;;;18.50;14.83;;;;;;;7.58;80.35;93389.13;523179;28;918;-70
2024/03/15 00:55:30;;;;;;;16.80;14.18;;;;;;;7.58;80.56;93391.88;523215;28;761;-70
2024/03/15 00:55:46;;;;;;;16.40;13.73;;;;;;;7.58;80.70;93391.13;523111;28;855;-70
2024/03/15 00:56:01;;;;;;;17.60;14.17;;;;;;;7.57;80.68;93384.94;523220;28;848;-70
2024/03/15 00:56:17;;;;;;;19.58;15.50;;;;;;;7.57;80.46;93384.19;523209;28;936;-70
2024/03/15 00:56:32;;;;;;;21.38;16.30;;;;;;;7.57;80.48;93384.94;523117;28;815;-70
2024/03/15 00:56:48;;;;;;;21.17;15.83;;;;;;;7.57;80.69;93390.41;523191;28;749;-70
2024/03/15 00:57:05;;;;;;;20.98;15.90;;;;;;;7.58;80.59;93386.38;523208;28;852;-70
2024/03/15 00:57:20;;;;;;;20.33;16.42;;;;;;;7.59;80.54;93387.13;523222;28;828;-70
2024/03/15 00:57:36;;;;;;;20.83;16.67;;;;;;;7.56;80.52;93388.94;523140;28;813;-71
2024/03/15 00:57:51;;;;;;;20.93;16.63;;;;;;;7.53;80.80;93381.75;523251;28;842;-70
2024/03/15 00:58:07;;;;;;;22.70;17.05;;;;;;;7.53;80.57;93389.25;523142;28;908;-70
2024/03/15 00:58:22;;;;;;;23.70;17.23;;;;;;;7.51;80.87;93384.28;523201;28;952;-70
2024/03/15 00:58:38;;;;;;;22.15;16.45;;;;;;;7.40;81.01;93373.53;522944;28;856;-70
2024/03/15 00:58:54;;;;;;;20.42;16.02;;;;;;;7.52;80.91;93385.78;523199;28;910;-70
2024/03/15 00:59:09;;;;;;;19.83;15.60;;;;;;;7.53;81.06;93383.78;523118;28;886;-70
2024/03/15 00:59:25;;;;;;;19.08;14.85;;;;;;;7.52;80.89;93385.78;523208;28;772;-69
2024/03/15 00:59:40;;;;;;;18.03;15.30;;;;;;;7.54;80.80;93383.22;523139;28;761;-70
2024/03/15 00:59:56;;;;;;;18.73;15.10;;;;;;;7.54;80.71;93382.47;523196;28;919;-70
2024/03/15 01:00:11;;;;;;;19.53;15.33;;;;;;;7.53;80.76;93387.25;523249;28;765;-70
2024/03/15 01:00:27;;;;;;;19.60;15.98;;;;;;;7.54;80.64;93385.22;523035;28;768;-70
2024/03/15 01:00:42;;;;;;;18.77;14.80;;;;;;;7.55;80.54;93386.72;523021;28;899;-70
2024/03/15 01:00:59;;;;;;;17.48;13.35;;;;;;;7.56;80.68;93388.19;523028;28;788;-70
2024/03/15 01:01:14;;;;;;;16.08;12.63;;;;;;;7.56;80.48;93385.44;523072;28;843;-69
2024/03/15 01:01:30;;;;;;;15.13;12.43;;;;;;;7.55;80.39;93384.72;522960;28;915;-69
2024/03/15 01:01:45;;;;;;;15.03;12.20;;;;;;;7.57;80.35;93387.69;523018;28;793;-69
2024/03/15 01:02:01;;;;;;;16.35;12.57;;;;;;;7.56;80.33;93388.94;522988;28;769;-70
2024/03/15 01:02:16;;;;;;;16.43;12.43;;;;;;;7.57;80.36;93387.69;523094;28;765;-70
2024/03/15 01:02:32;;;;;;;15.32;11.75;;;;;;;7.57;80.47;93389.69;523159;28;872;-70
2024/03/15 01:02:47;;;;;;;15.63;12.13;;;;;;;7.57;80.17;93384.19;523214;28;765;-70
2024/03/15 01:03:03;;;;;;;16.05;12.50;;;;;;;7.57;80.25;93384.19;523219;28;875;-69
2024/03/15 01:03:18;;;;;;;14.57;12.07;;;;;;;7.56;80.29;93383.44;523095;28;835;-70
2024/03/15 01:03:34;;;;;;;15.65;12.48;;;;;;;7.56;80.34;93379.94;523196;28;820;-70
2024/03/15 01:03:49;;;;;;;15.53;12.10;;;;;;;7.56;80.31;93388.19;523177;28;789;-70
2024/03/15 01:04:05;;;;;;;14.13;11.35;;;;;;;7.56;80.42;93382.69;523252;28;851;-70
2024/03/15 01:04:20;;;;;;;15.10;11.87;;;;;;;7.55;80.64;93378.47;523184;28;910;-70
2024/03/15 01:04:36;;;;;;;15.02;12.07;;;;;;;7.54;80.56;93388.72;523096;28;875;-69
2024/03/15 01:04:51;;;;;;;15.20;12.37;;;;;;;7.53;80.59;93378.28;523179;28;929;-70
2024/03/15 01:05:07;;;;;;;15.45;12.45;;;;;;;7.54;80.64;93385.22;523204;28;800;-70
2024/03/15 01:05:23;;;;;;;16.70;12.40;;;;;;;7.55;80.72;93384.72;523169;28;910;-70
2024/03/15 01:05:38;;;;;;;18.00;12.70;;;;;;;7.54;80.81;93385.22;523164;28;852;-70
2024/03/15 01:05:57;;;;;;;16.55;12.38;;;;;;;7.54;80.90;93380.47;523240;28;808;-70
2024/03/15 01:06:15;;;;;;;16.90;12.10;;;;;;;7.54;80.68;93383.22;523098;28;992;-70
2024/03/15 01:06:31;;;;;;;14.20;11.60;;;;;;;7.53;80.88;93386.50;523250;28;828;-70
2024/03/15 01:06:47;;;;;;;14.27;11.53;;;;;;;7.52;80.83;93379.53;523143;28;847;-70
2024/03/15 01:07:02;;;;;;;13.55;11.35;;;;;;;7.52;80.88;93379.53;523023;28;840;-70
2024/03/15 01:07:19;;;;;;;13.37;11.30;;;;;;;7.51;80.83;93380.81;523025;28;844;-70
2024/03/15 01:07:34;;;;;;;13.73;11.50;;;;;;;7.51;80.90;93375.31;522996;28;914;-69
2024/03/15 01:07:49;;;;;;;12.90;11.07;;;;;;;7.50;81.03;93380.06;523059;28;831;-70
2024/03/15 01:08:07;;;;;;;13.25;11.35;;;;;;;7.51;81.01;93369.81;523039;28;836;-70
2024/03/15 01:08:23;;;;;;;14.40;11.40;;;;;;;7.51;81.15;93375.31;522971;28;926;-70
2024/03/15 01:08:38;;;;;;;13.45;10.35;;;;;;;7.48;80.72;93377.13;522927;28;892;-70
2024/03/15 01:08:54;;;;;;;12.93;10.35;;;;;;;7.46;80.72;93378.91;523072;28;784;-70
2024/03/15 01:09:09;;;;;;;13.53;11.00;;;;;;;7.44;80.74;93367.72;523233;28;816;-70
2024/03/15 01:09:25;;;;;;;12.07;10.77;;;;;;;7.41;80.60;93377.00;523174;28;769;-70
2024/03/15 01:09:40;;;;;;;11.47;10.23;;;;;;;7.39;80.77;93366.56;523135;28;800;-70
2024/03/15 01:09:56;;;;;;;12.90;10.75;;;;;;;7.39;80.84;93361.06;523209;28;801;-70
2024/03/15 01:10:12;;;;;;;12.77;10.70;;;;;;;7.37;80.74;93374.59;523076;28;855;-70
2024/03/15 01:10:31;;;;;;;12.75;10.65;;;;;;;7.38;80.70;93370.59;523138;28;841;-70
2024/03/15 01:10:47;;;;;;;12.82;10.63;;;;;;;7.38;80.44;93373.34;523141;28;832;-70
2024/03/15 01:11:02;;;;;;;11.30;9.85;;;;;;;7.38;80.59;93369.84;523173;28;831;-70
2024/03/15 01:11:18;;;;;;;11.43;9.47;;;;;;;7.38;80.81;93372.59;523203;28;924;-70
2024/03/15 01:11:33;;;;;;;12.38;9.85;;;;;;;7.36;80.74;93359.38;523176;28;797;-70
2024/03/15 01:11:50;;;;;;;12.83;10.23;;;;;;;7.38;80.56;93367.84;523175;28;769;-70
2024/03/15 01:12:06;;;;;;;13.02;10.10;;;;;;;7.35;80.64;93371.63;523105;28;874;-70
2024/03/15 01:12:22;;;;;;;14.65;10.80;;;;;;;7.36;80.83;93372.38;523103;28;1969;-70
2024/03/15 01:12:37;;;;;;;13.15;10.52;;;;;;;7.34;80.64;93372.19;523190;28;961;-70
2024/03/15 01:12:53;;;;;;;12.07;10.40;;;;;;;7.30;80.72;93371.72;523155;28;915;-69
2024/03/15 01:13:08;;;;;;;12.60;10.67;;;;;;;7.27;80.89;93383.78;523107;28;760;-70
2024/03/15 01:13:24;;;;;;;13.15;11.02;;;;;;;7.23;80.83;93380.63;523184;28;789;-70
2024/03/15 01:13:41;;;;;;;13.33;10.77;;;;;;;7.23;81.02;93375.13;523113;28;738;-70
2024/03/15 01:13:58;;;;;;;13.75;10.90;;;;;;;7.20;81.15;93379.66;523205;28;816;-70
2024/03/15 01:14:14;;;;;;;14.20;11.18;;;;;;;7.19;81.33;93375.44;523211;28;839;-70
2024/03/15 01:14:29;;;;;;;11.88;9.85;;;;;;;7.19;81.28;93378.19;523166;28;820;-70
2024/03/15 01:14:45;;;;;;;11.03;9.47;;;;;;;7.20;81.69;93376.19;523156;28;768;-70
2024/03/15 01:15:00;;;;;;;12.48;10.50;;;;;;;7.04;81.34;93361.50;523161;28;796;-70
2024/03/15 01:15:16;;;;;;;12.97;10.80;;;;;;;7.21;81.46;93385.91;523273;28;781;-70
2024/03/15 01:15:31;;;;;;;14.25;11.05;;;;;;;7.22;81.44;93381.88;523097;28;1121;-70
2024/03/15 01:15:47;;;;;;;16.37;12.73;;;;;;;7.23;81.40;93388.88;523148;28;848;-70
2024/03/15 01:16:02;;;;;;;17.83;14.13;;;;;;;7.23;81.70;93392.34;523160;28;906;-70
2024/03/15 01:16:18;;;;;;;18.67;15.10;;;;;;;7.24;81.51;93385.59;523068;28;766;-70
2024/03/15 01:16:33;;;;;;;19.35;15.80;;;;;;;7.23;81.61;93394.34;523157;28;808;-70
2024/03/15 01:16:49;;;;;;;18.77;15.50;;;;;;;7.26;81.70;93393.28;523132;28;824;-70